sensor_id;sensor_type;location;lat;lon;timestamp;temperature;humidity
15426;DHT22;7812;50.072;7.036;2023-08-24T00:01:16;17.60;99.90
15426;DHT22;7812;50.072;7.036;2023-08-24T00:03:44;17.70;99.90
15426;DHT22;7812;50.072;7.036;2023-08-24T00:06:09;17.70;99.90
15426;DHT22;7812;50.072;7.036;2023-08-24T00:08:36;17.70;99.90
15426;DHT22;7812;50.072;7.036;2023-08-24T00:11:02;17.70;99.90
15426;DHT22;7812;50.072;7.036;2023-08-24T00:13:28;17.60;99.90
15426;DHT22;7812;50.072;7.036;2023-08-24T00:15:54;17.60;99.90
15426;DHT22;7812;50.072;7.036;2023-08-24T00:18:20;17.60;99.90
15426;DHT22;7812;50.072;7.036;2023-08-24T00:20:48;17.50;99.90
15426;DHT22;7812;50.072;7.036;2023-08-24T00:23:14;17.40;99.90
15426;DHT22;7812;50.072;7.036;2023-08-24T00:25:40;17.50;99.90
15426;DHT22;7812;50.072;7.036;2023-08-24T00:28:08;17.60;99.90
15426;DHT22;7812;50.072;7.036;2023-08-24T00:30:36;17.50;99.90
15426;DHT22;7812;50.072;7.036;2023-08-24T00:33:02;17.50;99.90
15426;DHT22;7812;50.072;7.036;2023-08-24T00:35:27;17.50;99.90
15426;DHT22;7812;50.072;7.036;2023-08-24T00:37:53;17.60;99.90
15426;DHT22;7812;50.072;7.036;2023-08-24T00:40:19;17.50;99.90
15426;DHT22;7812;50.072;7.036;2023-08-24T00:42:45;17.60;99.90
15426;DHT22;7812;50.072;7.036;2023-08-24T00:45:14;17.60;99.90
15426;DHT22;7812;50.072;7.036;2023-08-24T00:47:42;17.60;99.90
15426;DHT22;7812;50.072;7.036;2023-08-24T00:50:09;17.60;99.90
15426;DHT22;7812;50.072;7.036;2023-08-24T00:52:37;17.60;99.90
15426;DHT22;7812;50.072;7.036;2023-08-24T00:55:05;17.70;99.90
15426;DHT22;7812;50.072;7.036;2023-08-24T00:57:32;17.60;99.90
15426;DHT22;7812;50.072;7.036;2023-08-24T00:59:59;17.50;99.90
15426;DHT22;7812;50.072;7.036;2023-08-24T01:02:27;17.30;99.90
15426;DHT22;7812;50.072;7.036;2023-08-24T01:04:53;17.20;99.90
15426;DHT22;7812;50.072;7.036;2023-08-24T01:07:20;17.20;99.90
15426;DHT22;7812;50.072;7.036;2023-08-24T01:09:47;17.20;99.90
15426;DHT22;7812;50.072;7.036;2023-08-24T01:14:51;17.20;99.90
15426;DHT22;7812;50.072;7.036;2023-08-24T01:17:24;17.20;99.90
15426;DHT22;7812;50.072;7.036;2023-08-24T01:19:55;17.20;99.90
15426;DHT22;7812;50.072;7.036;2023-08-24T01:27:36;17.20;99.90
15426;DHT22;7812;50.072;7.036;2023-08-24T01:30:03;17.20;99.90
15426;DHT22;7812;50.072;7.036;2023-08-24T01:32:33;17.20;99.90
15426;DHT22;7812;50.072;7.036;2023-08-24T01:35:01;17.10;99.90
15426;DHT22;7812;50.072;7.036;2023-08-24T01:37:28;17.20;99.90
15426;DHT22;7812;50.072;7.036;2023-08-24T01:42:26;17.10;99.90
15426;DHT22;7812;50.072;7.036;2023-08-24T01:44:55;17.10;99.90
15426;DHT22;7812;50.072;7.036;2023-08-24T01:47:24;17.10;99.90
15426;DHT22;7812;50.072;7.036;2023-08-24T01:49:51;17.10;99.90
15426;DHT22;7812;50.072;7.036;2023-08-24T01:52:17;17.10;99.90
15426;DHT22;7812;50.072;7.036;2023-08-24T01:54:43;17.10;99.90
15426;DHT22;7812;50.072;7.036;2023-08-24T01:57:10;17.10;99.90
15426;DHT22;7812;50.072;7.036;2023-08-24T01:59:36;17.00;99.90
15426;DHT22;7812;50.072;7.036;2023-08-24T02:02:01;17.00;99.90
15426;DHT22;7812;50.072;7.036;2023-08-24T02:04:28;16.90;99.90
15426;DHT22;7812;50.072;7.036;2023-08-24T02:06:53;16.80;99.90
15426;DHT22;7812;50.072;7.036;2023-08-24T02:09:19;16.70;99.90
15426;DHT22;7812;50.072;7.036;2023-08-24T02:11:45;16.80;99.90
15426;DHT22;7812;50.072;7.036;2023-08-24T02:14:10;16.80;99.90
15426;DHT22;7812;50.072;7.036;2023-08-24T02:16:36;16.90;99.90
15426;DHT22;7812;50.072;7.036;2023-08-24T02:19:01;16.90;99.90
15426;DHT22;7812;50.072;7.036;2023-08-24T02:21:27;17.00;99.90
15426;DHT22;7812;50.072;7.036;2023-08-24T02:23:53;17.00;99.90
15426;DHT22;7812;50.072;7.036;2023-08-24T02:26:18;16.90;99.90
15426;DHT22;7812;50.072;7.036;2023-08-24T02:28:45;16.90;99.90
15426;DHT22;7812;50.072;7.036;2023-08-24T02:31:11;16.80;99.90
15426;DHT22;7812;50.072;7.036;2023-08-24T02:33:37;16.80;99.90
15426;DHT22;7812;50.072;7.036;2023-08-24T02:36:03;16.70;99.90
15426;DHT22;7812;50.072;7.036;2023-08-24T02:38:28;16.70;99.90
15426;DHT22;7812;50.072;7.036;2023-08-24T02:41:05;16.80;99.90
15426;DHT22;7812;50.072;7.036;2023-08-24T02:43:32;16.80;99.90
15426;DHT22;7812;50.072;7.036;2023-08-24T02:46:01;16.80;99.90
15426;DHT22;7812;50.072;7.036;2023-08-24T02:48:28;16.80;99.90
15426;DHT22;7812;50.072;7.036;2023-08-24T02:50:54;16.80;99.90
15426;DHT22;7812;50.072;7.036;2023-08-24T02:53:20;16.80;99.90
15426;DHT22;7812;50.072;7.036;2023-08-24T02:55:45;16.70;99.90
15426;DHT22;7812;50.072;7.036;2023-08-24T02:58:11;16.90;99.90
15426;DHT22;7812;50.072;7.036;2023-08-24T03:00:39;16.90;99.90
15426;DHT22;7812;50.072;7.036;2023-08-24T03:03:05;17.00;99.90
15426;DHT22;7812;50.072;7.036;2023-08-24T03:05:33;17.00;99.90
15426;DHT22;7812;50.072;7.036;2023-08-24T03:07:59;17.00;99.90
15426;DHT22;7812;50.072;7.036;2023-08-24T03:10:25;17.00;99.90
15426;DHT22;7812;50.072;7.036;2023-08-24T03:12:50;17.00;99.90
15426;DHT22;7812;50.072;7.036;2023-08-24T03:15:16;17.00;99.90
15426;DHT22;7812;50.072;7.036;2023-08-24T03:17:42;16.90;99.90
15426;DHT22;7812;50.072;7.036;2023-08-24T03:20:08;17.00;99.90
15426;DHT22;7812;50.072;7.036;2023-08-24T03:22:34;16.90;99.90
15426;DHT22;7812;50.072;7.036;2023-08-24T03:25:00;17.00;99.90
15426;DHT22;7812;50.072;7.036;2023-08-24T03:27:25;17.00;99.90
15426;DHT22;7812;50.072;7.036;2023-08-24T03:29:54;17.00;99.90
15426;DHT22;7812;50.072;7.036;2023-08-24T03:32:20;17.00;99.90
15426;DHT22;7812;50.072;7.036;2023-08-24T03:34:46;17.10;99.90
15426;DHT22;7812;50.072;7.036;2023-08-24T03:37:11;17.10;99.90
15426;DHT22;7812;50.072;7.036;2023-08-24T03:39:38;17.10;99.90
15426;DHT22;7812;50.072;7.036;2023-08-24T03:42:04;17.10;99.90
15426;DHT22;7812;50.072;7.036;2023-08-24T03:44:30;17.10;99.90
15426;DHT22;7812;50.072;7.036;2023-08-24T03:46:55;17.10;99.90
15426;DHT22;7812;50.072;7.036;2023-08-24T03:49:21;16.90;99.90
15426;DHT22;7812;50.072;7.036;2023-08-24T03:51:47;16.90;99.90
15426;DHT22;7812;50.072;7.036;2023-08-24T03:54:12;16.80;99.90
15426;DHT22;7812;50.072;7.036;2023-08-24T03:56:39;16.80;99.90
15426;DHT22;7812;50.072;7.036;2023-08-24T03:59:05;16.80;99.90
15426;DHT22;7812;50.072;7.036;2023-08-24T04:01:30;16.80;99.90
15426;DHT22;7812;50.072;7.036;2023-08-24T04:03:56;16.90;99.90
15426;DHT22;7812;50.072;7.036;2023-08-24T04:06:23;16.90;99.90
15426;DHT22;7812;50.072;7.036;2023-08-24T04:08:49;16.90;99.90
15426;DHT22;7812;50.072;7.036;2023-08-24T04:11:15;16.90;99.90
15426;DHT22;7812;50.072;7.036;2023-08-24T04:13:40;17.00;99.90
15426;DHT22;7812;50.072;7.036;2023-08-24T04:16:06;17.00;99.90
15426;DHT22;7812;50.072;7.036;2023-08-24T04:18:32;17.00;99.90
15426;DHT22;7812;50.072;7.036;2023-08-24T04:20:57;17.20;99.90
15426;DHT22;7812;50.072;7.036;2023-08-24T04:23:27;17.20;99.90
15426;DHT22;7812;50.072;7.036;2023-08-24T04:25:54;17.30;99.90
15426;DHT22;7812;50.072;7.036;2023-08-24T04:28:20;17.40;99.90
15426;DHT22;7812;50.072;7.036;2023-08-24T04:30:53;17.30;99.90
15426;DHT22;7812;50.072;7.036;2023-08-24T04:33:19;17.30;99.90
15426;DHT22;7812;50.072;7.036;2023-08-24T04:35:48;17.40;99.90
15426;DHT22;7812;50.072;7.036;2023-08-24T04:38:15;17.40;99.90
15426;DHT22;7812;50.072;7.036;2023-08-24T04:43:14;17.40;99.90
15426;DHT22;7812;50.072;7.036;2023-08-24T04:45:40;17.40;99.90
15426;DHT22;7812;50.072;7.036;2023-08-24T04:48:06;17.40;99.90
15426;DHT22;7812;50.072;7.036;2023-08-24T04:50:31;17.40;99.90
15426;DHT22;7812;50.072;7.036;2023-08-24T04:52:57;17.50;99.90
15426;DHT22;7812;50.072;7.036;2023-08-24T04:55:23;17.50;99.90
15426;DHT22;7812;50.072;7.036;2023-08-24T04:57:49;17.60;99.90
15426;DHT22;7812;50.072;7.036;2023-08-24T05:00:15;17.50;99.90
15426;DHT22;7812;50.072;7.036;2023-08-24T05:02:42;17.50;99.90
15426;DHT22;7812;50.072;7.036;2023-08-24T05:05:08;17.50;99.90
15426;DHT22;7812;50.072;7.036;2023-08-24T05:07:37;17.50;99.90
15426;DHT22;7812;50.072;7.036;2023-08-24T05:10:04;17.40;99.90
15426;DHT22;7812;50.072;7.036;2023-08-24T05:12:29;17.40;99.90
15426;DHT22;7812;50.072;7.036;2023-08-24T05:14:55;17.20;99.90
15426;DHT22;7812;50.072;7.036;2023-08-24T05:17:21;17.10;99.90
15426;DHT22;7812;50.072;7.036;2023-08-24T05:19:56;17.10;99.90
15426;DHT22;7812;50.072;7.036;2023-08-24T05:22:22;17.20;99.90
15426;DHT22;7812;50.072;7.036;2023-08-24T05:24:47;17.20;99.90
15426;DHT22;7812;50.072;7.036;2023-08-24T05:27:13;17.30;99.90
15426;DHT22;7812;50.072;7.036;2023-08-24T05:29:39;17.40;99.90
15426;DHT22;7812;50.072;7.036;2023-08-24T05:32:04;17.40;99.90
15426;DHT22;7812;50.072;7.036;2023-08-24T05:34:30;17.10;99.90
15426;DHT22;7812;50.072;7.036;2023-08-24T05:36:56;17.00;99.90
15426;DHT22;7812;50.072;7.036;2023-08-24T05:39:22;16.90;99.90
15426;DHT22;7812;50.072;7.036;2023-08-24T05:41:51;17.10;99.90
15426;DHT22;7812;50.072;7.036;2023-08-24T05:44:21;17.20;99.90
15426;DHT22;7812;50.072;7.036;2023-08-24T05:46:47;17.30;99.90
15426;DHT22;7812;50.072;7.036;2023-08-24T05:49:13;17.30;99.90
15426;DHT22;7812;50.072;7.036;2023-08-24T05:51:38;17.20;99.90
15426;DHT22;7812;50.072;7.036;2023-08-24T05:54:04;17.20;99.90
15426;DHT22;7812;50.072;7.036;2023-08-24T05:56:30;17.20;99.90
15426;DHT22;7812;50.072;7.036;2023-08-24T05:58:58;17.00;99.90
15426;DHT22;7812;50.072;7.036;2023-08-24T06:01:24;17.00;99.90
15426;DHT22;7812;50.072;7.036;2023-08-24T06:03:50;16.90;99.90
15426;DHT22;7812;50.072;7.036;2023-08-24T06:06:16;16.90;99.90
15426;DHT22;7812;50.072;7.036;2023-08-24T06:08:42;16.90;99.90
15426;DHT22;7812;50.072;7.036;2023-08-24T06:11:08;17.00;99.90
15426;DHT22;7812;50.072;7.036;2023-08-24T06:13:34;17.10;99.90
15426;DHT22;7812;50.072;7.036;2023-08-24T06:16:00;17.30;99.90
15426;DHT22;7812;50.072;7.036;2023-08-24T06:18:26;17.30;99.90
15426;DHT22;7812;50.072;7.036;2023-08-24T06:20:51;17.20;99.90
15426;DHT22;7812;50.072;7.036;2023-08-24T06:23:17;17.30;99.90
15426;DHT22;7812;50.072;7.036;2023-08-24T06:25:43;17.20;99.90
15426;DHT22;7812;50.072;7.036;2023-08-24T06:28:10;17.20;99.90
15426;DHT22;7812;50.072;7.036;2023-08-24T06:30:40;17.20;99.90
15426;DHT22;7812;50.072;7.036;2023-08-24T06:33:06;17.10;99.90
15426;DHT22;7812;50.072;7.036;2023-08-24T06:35:34;17.00;99.90
15426;DHT22;7812;50.072;7.036;2023-08-24T06:38:00;17.00;99.90
15426;DHT22;7812;50.072;7.036;2023-08-24T06:40:26;16.90;99.90
15426;DHT22;7812;50.072;7.036;2023-08-24T06:42:52;17.00;99.90
15426;DHT22;7812;50.072;7.036;2023-08-24T06:45:18;17.10;99.90
15426;DHT22;7812;50.072;7.036;2023-08-24T06:47:44;17.10;99.90
15426;DHT22;7812;50.072;7.036;2023-08-24T06:50:10;17.10;99.90
15426;DHT22;7812;50.072;7.036;2023-08-24T06:52:36;17.20;99.90
15426;DHT22;7812;50.072;7.036;2023-08-24T06:55:02;17.10;99.90
15426;DHT22;7812;50.072;7.036;2023-08-24T06:57:29;17.10;99.90
15426;DHT22;7812;50.072;7.036;2023-08-24T06:59:55;17.10;99.90
15426;DHT22;7812;50.072;7.036;2023-08-24T07:02:21;17.20;99.90
15426;DHT22;7812;50.072;7.036;2023-08-24T07:04:47;17.40;99.90
15426;DHT22;7812;50.072;7.036;2023-08-24T07:07:12;17.50;99.90
15426;DHT22;7812;50.072;7.036;2023-08-24T07:09:38;17.60;99.90
15426;DHT22;7812;50.072;7.036;2023-08-24T07:12:04;17.70;99.90
15426;DHT22;7812;50.072;7.036;2023-08-24T07:14:33;18.00;99.90
15426;DHT22;7812;50.072;7.036;2023-08-24T07:16:58;18.10;99.90
15426;DHT22;7812;50.072;7.036;2023-08-24T07:19:24;18.40;99.90
15426;DHT22;7812;50.072;7.036;2023-08-24T07:21:50;18.70;99.90
15426;DHT22;7812;50.072;7.036;2023-08-24T07:24:16;18.90;99.90
15426;DHT22;7812;50.072;7.036;2023-08-24T07:26:44;19.10;99.90
15426;DHT22;7812;50.072;7.036;2023-08-24T07:29:11;19.60;99.90
15426;DHT22;7812;50.072;7.036;2023-08-24T07:31:37;20.90;99.90
15426;DHT22;7812;50.072;7.036;2023-08-24T07:34:03;22.60;99.90
15426;DHT22;7812;50.072;7.036;2023-08-24T07:36:29;24.60;99.90
15426;DHT22;7812;50.072;7.036;2023-08-24T07:38:55;24.80;99.90
15426;DHT22;7812;50.072;7.036;2023-08-24T07:41:21;25.40;99.90
15426;DHT22;7812;50.072;7.036;2023-08-24T07:43:47;25.60;99.90
15426;DHT22;7812;50.072;7.036;2023-08-24T07:46:13;25.50;99.90
15426;DHT22;7812;50.072;7.036;2023-08-24T07:48:38;25.40;99.90
15426;DHT22;7812;50.072;7.036;2023-08-24T07:51:04;26.40;99.90
15426;DHT22;7812;50.072;7.036;2023-08-24T07:53:30;27.80;99.90
15426;DHT22;7812;50.072;7.036;2023-08-24T07:55:58;28.80;99.90
15426;DHT22;7812;50.072;7.036;2023-08-24T07:58:24;29.30;99.90
15426;DHT22;7812;50.072;7.036;2023-08-24T08:00:50;28.10;99.90
15426;DHT22;7812;50.072;7.036;2023-08-24T08:03:20;27.30;99.90
15426;DHT22;7812;50.072;7.036;2023-08-24T08:05:46;27.70;99.90
15426;DHT22;7812;50.072;7.036;2023-08-24T08:08:16;27.40;99.90
15426;DHT22;7812;50.072;7.036;2023-08-24T08:10:42;28.10;99.90
15426;DHT22;7812;50.072;7.036;2023-08-24T08:13:08;29.70;99.90
15426;DHT22;7812;50.072;7.036;2023-08-24T08:15:36;31.60;99.90
15426;DHT22;7812;50.072;7.036;2023-08-24T08:18:04;32.20;99.90
15426;DHT22;7812;50.072;7.036;2023-08-24T08:20:30;33.20;99.90
15426;DHT22;7812;50.072;7.036;2023-08-24T08:22:55;32.50;99.90
15426;DHT22;7812;50.072;7.036;2023-08-24T08:25:21;31.70;99.90
15426;DHT22;7812;50.072;7.036;2023-08-24T08:27:48;31.10;99.90
15426;DHT22;7812;50.072;7.036;2023-08-24T08:30:14;31.60;99.90
15426;DHT22;7812;50.072;7.036;2023-08-24T08:32:41;30.10;99.90
15426;DHT22;7812;50.072;7.036;2023-08-24T08:35:08;31.00;99.90
15426;DHT22;7812;50.072;7.036;2023-08-24T08:37:34;31.10;99.90
15426;DHT22;7812;50.072;7.036;2023-08-24T08:40:02;32.00;99.90
15426;DHT22;7812;50.072;7.036;2023-08-24T08:42:31;31.60;99.90
15426;DHT22;7812;50.072;7.036;2023-08-24T08:44:59;32.80;99.90
15426;DHT22;7812;50.072;7.036;2023-08-24T08:47:28;31.60;99.90
15426;DHT22;7812;50.072;7.036;2023-08-24T08:49:55;32.80;99.90
15426;DHT22;7812;50.072;7.036;2023-08-24T08:52:21;33.40;99.90
15426;DHT22;7812;50.072;7.036;2023-08-24T08:54:46;34.60;99.90
15426;DHT22;7812;50.072;7.036;2023-08-24T08:57:13;33.00;99.90
15426;DHT22;7812;50.072;7.036;2023-08-24T08:59:40;33.70;99.90
15426;DHT22;7812;50.072;7.036;2023-08-24T09:02:10;34.40;99.90
15426;DHT22;7812;50.072;7.036;2023-08-24T09:04:38;33.40;99.90
15426;DHT22;7812;50.072;7.036;2023-08-24T09:07:04;33.40;99.90
15426;DHT22;7812;50.072;7.036;2023-08-24T09:09:36;33.80;99.90
15426;DHT22;7812;50.072;7.036;2023-08-24T09:12:03;34.00;99.90
15426;DHT22;7812;50.072;7.036;2023-08-24T09:14:29;34.90;99.90
15426;DHT22;7812;50.072;7.036;2023-08-24T09:16:54;35.90;99.90
15426;DHT22;7812;50.072;7.036;2023-08-24T09:19:28;36.30;99.90
15426;DHT22;7812;50.072;7.036;2023-08-24T09:21:56;35.60;99.90
15426;DHT22;7812;50.072;7.036;2023-08-24T09:24:33;33.00;99.90
15426;DHT22;7812;50.072;7.036;2023-08-24T09:26:59;33.20;99.90
15426;DHT22;7812;50.072;7.036;2023-08-24T09:29:25;34.30;99.90
15426;DHT22;7812;50.072;7.036;2023-08-24T09:31:51;33.00;99.90
15426;DHT22;7812;50.072;7.036;2023-08-24T09:34:20;33.20;99.90
15426;DHT22;7812;50.072;7.036;2023-08-24T09:36:49;34.20;99.90
15426;DHT22;7812;50.072;7.036;2023-08-24T09:39:17;33.20;99.90
15426;DHT22;7812;50.072;7.036;2023-08-24T09:41:50;32.40;99.90
15426;DHT22;7812;50.072;7.036;2023-08-24T09:44:19;32.30;99.90
15426;DHT22;7812;50.072;7.036;2023-08-24T09:46:45;32.00;99.90
15426;DHT22;7812;50.072;7.036;2023-08-24T09:49:11;31.90;99.90
15426;DHT22;7812;50.072;7.036;2023-08-24T09:51:39;32.60;99.90
15426;DHT22;7812;50.072;7.036;2023-08-24T09:54:07;31.70;99.90
15426;DHT22;7812;50.072;7.036;2023-08-24T09:56:37;31.40;99.90
15426;DHT22;7812;50.072;7.036;2023-08-24T09:59:14;31.10;99.90
15426;DHT22;7812;50.072;7.036;2023-08-24T10:01:47;29.40;99.90
15426;DHT22;7812;50.072;7.036;2023-08-24T10:04:29;29.60;99.90
15426;DHT22;7812;50.072;7.036;2023-08-24T10:07:14;30.00;99.90
15426;DHT22;7812;50.072;7.036;2023-08-24T10:09:56;29.70;99.90
15426;DHT22;7812;50.072;7.036;2023-08-24T10:12:26;29.70;99.90
15426;DHT22;7812;50.072;7.036;2023-08-24T10:15:02;29.50;99.90
15426;DHT22;7812;50.072;7.036;2023-08-24T10:17:33;29.80;99.90
15426;DHT22;7812;50.072;7.036;2023-08-24T10:20:01;29.90;99.90
15426;DHT22;7812;50.072;7.036;2023-08-24T10:22:31;29.60;99.90
15426;DHT22;7812;50.072;7.036;2023-08-24T10:24:59;29.60;99.90
15426;DHT22;7812;50.072;7.036;2023-08-24T10:27:26;29.70;99.90
15426;DHT22;7812;50.072;7.036;2023-08-24T10:29:52;29.90;99.90
15426;DHT22;7812;50.072;7.036;2023-08-24T10:32:19;29.80;99.90
15426;DHT22;7812;50.072;7.036;2023-08-24T10:34:46;29.70;99.90
15426;DHT22;7812;50.072;7.036;2023-08-24T10:37:12;29.80;99.90
15426;DHT22;7812;50.072;7.036;2023-08-24T10:39:44;30.30;99.90
15426;DHT22;7812;50.072;7.036;2023-08-24T10:42:12;30.50;99.90
15426;DHT22;7812;50.072;7.036;2023-08-24T10:44:39;30.70;99.90
15426;DHT22;7812;50.072;7.036;2023-08-24T10:47:34;30.90;99.90
15426;DHT22;7812;50.072;7.036;2023-08-24T10:50:09;30.80;99.90
15426;DHT22;7812;50.072;7.036;2023-08-24T10:52:36;30.90;99.90
15426;DHT22;7812;50.072;7.036;2023-08-24T10:55:05;30.70;99.90
15426;DHT22;7812;50.072;7.036;2023-08-24T10:57:58;30.50;99.90
15426;DHT22;7812;50.072;7.036;2023-08-24T11:00:31;30.40;99.90
15426;DHT22;7812;50.072;7.036;2023-08-24T11:02:57;30.20;99.90
15426;DHT22;7812;50.072;7.036;2023-08-24T11:05:27;30.10;99.90
15426;DHT22;7812;50.072;7.036;2023-08-24T11:08:04;30.00;99.90
15426;DHT22;7812;50.072;7.036;2023-08-24T11:13:11;28.90;99.90
15426;DHT22;7812;50.072;7.036;2023-08-24T11:15:41;28.70;99.90
15426;DHT22;7812;50.072;7.036;2023-08-24T11:20:50;28.30;99.90
15426;DHT22;7812;50.072;7.036;2023-08-24T11:23:17;28.30;99.90
15426;DHT22;7812;50.072;7.036;2023-08-24T11:25:48;28.30;99.90
15426;DHT22;7812;50.072;7.036;2023-08-24T11:28:19;28.10;99.90
15426;DHT22;7812;50.072;7.036;2023-08-24T11:30:45;27.60;99.90
15426;DHT22;7812;50.072;7.036;2023-08-24T11:33:12;27.20;99.90
15426;DHT22;7812;50.072;7.036;2023-08-24T11:35:44;27.00;99.90
15426;DHT22;7812;50.072;7.036;2023-08-24T11:38:11;26.90;99.90
15426;DHT22;7812;50.072;7.036;2023-08-24T11:40:37;27.00;99.90
15426;DHT22;7812;50.072;7.036;2023-08-24T11:43:04;26.90;99.90
15426;DHT22;7812;50.072;7.036;2023-08-24T11:45:32;26.60;99.90
15426;DHT22;7812;50.072;7.036;2023-08-24T11:47:59;26.50;99.90
15426;DHT22;7812;50.072;7.036;2023-08-24T11:50:28;26.30;99.90
15426;DHT22;7812;50.072;7.036;2023-08-24T11:52:54;26.00;99.90
15426;DHT22;7812;50.072;7.036;2023-08-24T11:55:23;25.70;99.90
15426;DHT22;7812;50.072;7.036;2023-08-24T11:57:50;25.00;99.90
15426;DHT22;7812;50.072;7.036;2023-08-24T12:00:18;25.00;99.90
15426;DHT22;7812;50.072;7.036;2023-08-24T12:02:44;25.00;99.90
15426;DHT22;7812;50.072;7.036;2023-08-24T12:05:30;24.90;99.90
15426;DHT22;7812;50.072;7.036;2023-08-24T12:07:56;24.60;99.90
15426;DHT22;7812;50.072;7.036;2023-08-24T12:10:21;24.10;99.90
15426;DHT22;7812;50.072;7.036;2023-08-24T12:12:48;23.80;99.90
15426;DHT22;7812;50.072;7.036;2023-08-24T12:15:18;23.80;99.90
15426;DHT22;7812;50.072;7.036;2023-08-24T12:17:46;23.80;99.90
15426;DHT22;7812;50.072;7.036;2023-08-24T12:20:22;23.90;99.90
15426;DHT22;7812;50.072;7.036;2023-08-24T12:22:55;23.90;99.90
15426;DHT22;7812;50.072;7.036;2023-08-24T12:25:24;23.60;99.90
15426;DHT22;7812;50.072;7.036;2023-08-24T12:28:16;23.10;99.90
15426;DHT22;7812;50.072;7.036;2023-08-24T12:30:47;22.90;99.90
15426;DHT22;7812;50.072;7.036;2023-08-24T12:33:27;22.90;99.90
15426;DHT22;7812;50.072;7.036;2023-08-24T12:35:53;22.90;99.90
15426;DHT22;7812;50.072;7.036;2023-08-24T12:38:21;22.80;99.90
15426;DHT22;7812;50.072;7.036;2023-08-24T12:40:46;22.80;99.90
15426;DHT22;7812;50.072;7.036;2023-08-24T12:43:12;22.70;99.90
15426;DHT22;7812;50.072;7.036;2023-08-24T12:45:39;22.70;99.90
15426;DHT22;7812;50.072;7.036;2023-08-24T12:48:05;22.70;99.90
15426;DHT22;7812;50.072;7.036;2023-08-24T12:50:32;22.60;99.90
15426;DHT22;7812;50.072;7.036;2023-08-24T12:52:58;22.60;99.90
15426;DHT22;7812;50.072;7.036;2023-08-24T12:55:28;22.50;99.90
15426;DHT22;7812;50.072;7.036;2023-08-24T12:57:54;22.50;99.90
15426;DHT22;7812;50.072;7.036;2023-08-24T13:00:20;22.50;99.90
15426;DHT22;7812;50.072;7.036;2023-08-24T13:02:46;22.20;99.90
15426;DHT22;7812;50.072;7.036;2023-08-24T13:05:11;21.90;99.90
15426;DHT22;7812;50.072;7.036;2023-08-24T13:07:38;21.80;99.90
15426;DHT22;7812;50.072;7.036;2023-08-24T13:10:04;21.60;99.90
15426;DHT22;7812;50.072;7.036;2023-08-24T13:12:30;21.40;99.90
15426;DHT22;7812;50.072;7.036;2023-08-24T13:14:56;21.30;99.90
15426;DHT22;7812;50.072;7.036;2023-08-24T13:17:21;21.30;99.90
15426;DHT22;7812;50.072;7.036;2023-08-24T13:19:47;21.50;99.90
15426;DHT22;7812;50.072;7.036;2023-08-24T13:22:14;21.60;99.90
15426;DHT22;7812;50.072;7.036;2023-08-24T13:24:40;21.80;99.90
15426;DHT22;7812;50.072;7.036;2023-08-24T13:27:08;22.20;99.90
15426;DHT22;7812;50.072;7.036;2023-08-24T13:29:36;22.60;99.90
15426;DHT22;7812;50.072;7.036;2023-08-24T13:32:02;23.00;99.90
15426;DHT22;7812;50.072;7.036;2023-08-24T13:34:28;23.10;99.90
15426;DHT22;7812;50.072;7.036;2023-08-24T13:36:54;23.30;99.90
15426;DHT22;7812;50.072;7.036;2023-08-24T13:39:19;23.60;99.90
15426;DHT22;7812;50.072;7.036;2023-08-24T13:41:45;23.90;99.90
15426;DHT22;7812;50.072;7.036;2023-08-24T13:44:11;24.20;99.90
15426;DHT22;7812;50.072;7.036;2023-08-24T13:46:36;24.40;99.90
15426;DHT22;7812;50.072;7.036;2023-08-24T13:49:02;24.60;99.90
15426;DHT22;7812;50.072;7.036;2023-08-24T13:51:28;24.40;99.90
15426;DHT22;7812;50.072;7.036;2023-08-24T13:53:54;24.00;99.90
15426;DHT22;7812;50.072;7.036;2023-08-24T13:56:20;24.00;99.90
15426;DHT22;7812;50.072;7.036;2023-08-24T13:58:46;24.10;99.90
15426;DHT22;7812;50.072;7.036;2023-08-24T14:01:12;23.90;99.90
15426;DHT22;7812;50.072;7.036;2023-08-24T14:03:39;23.70;99.90
15426;DHT22;7812;50.072;7.036;2023-08-24T14:06:08;23.40;99.90
15426;DHT22;7812;50.072;7.036;2023-08-24T14:08:34;23.20;99.90
15426;DHT22;7812;50.072;7.036;2023-08-24T14:11:00;23.10;99.90
15426;DHT22;7812;50.072;7.036;2023-08-24T14:13:25;23.00;99.90
15426;DHT22;7812;50.072;7.036;2023-08-24T14:15:51;22.90;99.90
15426;DHT22;7812;50.072;7.036;2023-08-24T14:18:18;22.90;99.90
15426;DHT22;7812;50.072;7.036;2023-08-24T14:20:44;22.80;99.90
15426;DHT22;7812;50.072;7.036;2023-08-24T14:23:09;22.80;99.90
15426;DHT22;7812;50.072;7.036;2023-08-24T14:25:35;22.80;99.90
15426;DHT22;7812;50.072;7.036;2023-08-24T14:28:01;22.90;99.90
15426;DHT22;7812;50.072;7.036;2023-08-24T14:30:26;22.80;99.90
15426;DHT22;7812;50.072;7.036;2023-08-24T14:32:52;22.80;99.90
15426;DHT22;7812;50.072;7.036;2023-08-24T14:35:18;22.70;99.90
15426;DHT22;7812;50.072;7.036;2023-08-24T14:37:43;22.60;99.90
15426;DHT22;7812;50.072;7.036;2023-08-24T14:40:09;22.40;99.90
15426;DHT22;7812;50.072;7.036;2023-08-24T14:42:35;22.20;99.90
15426;DHT22;7812;50.072;7.036;2023-08-24T14:45:01;22.10;99.90
15426;DHT22;7812;50.072;7.036;2023-08-24T14:47:27;22.00;99.90
15426;DHT22;7812;50.072;7.036;2023-08-24T14:49:53;21.80;99.90
15426;DHT22;7812;50.072;7.036;2023-08-24T14:52:18;21.80;99.90
15426;DHT22;7812;50.072;7.036;2023-08-24T14:54:44;21.80;99.90
15426;DHT22;7812;50.072;7.036;2023-08-24T14:57:10;21.80;99.90
15426;DHT22;7812;50.072;7.036;2023-08-24T14:59:36;21.70;99.90
15426;DHT22;7812;50.072;7.036;2023-08-24T15:02:02;21.60;99.90
15426;DHT22;7812;50.072;7.036;2023-08-24T15:04:28;21.60;99.90
15426;DHT22;7812;50.072;7.036;2023-08-24T15:06:54;21.60;99.90
15426;DHT22;7812;50.072;7.036;2023-08-24T15:09:19;21.60;99.90
15426;DHT22;7812;50.072;7.036;2023-08-24T15:11:45;21.50;99.90
15426;DHT22;7812;50.072;7.036;2023-08-24T15:14:11;21.50;99.90
15426;DHT22;7812;50.072;7.036;2023-08-24T15:16:39;21.60;99.90
15426;DHT22;7812;50.072;7.036;2023-08-24T15:19:08;21.50;99.90
15426;DHT22;7812;50.072;7.036;2023-08-24T15:21:33;21.20;99.90
15426;DHT22;7812;50.072;7.036;2023-08-24T15:23:59;21.00;99.90
15426;DHT22;7812;50.072;7.036;2023-08-24T15:26:25;20.80;99.90
15426;DHT22;7812;50.072;7.036;2023-08-24T15:29:17;20.60;99.90
15426;DHT22;7812;50.072;7.036;2023-08-24T15:31:43;20.50;99.90
15426;DHT22;7812;50.072;7.036;2023-08-24T15:34:11;20.40;99.90
15426;DHT22;7812;50.072;7.036;2023-08-24T15:36:36;20.20;99.90
15426;DHT22;7812;50.072;7.036;2023-08-24T15:39:03;20.10;99.90
15426;DHT22;7812;50.072;7.036;2023-08-24T15:41:30;19.90;99.90
15426;DHT22;7812;50.072;7.036;2023-08-24T15:43:56;19.90;99.90
15426;DHT22;7812;50.072;7.036;2023-08-24T15:46:21;19.90;99.90
15426;DHT22;7812;50.072;7.036;2023-08-24T15:48:47;19.80;99.90
15426;DHT22;7812;50.072;7.036;2023-08-24T15:51:13;19.90;99.90
15426;DHT22;7812;50.072;7.036;2023-08-24T15:53:38;19.90;99.90
15426;DHT22;7812;50.072;7.036;2023-08-24T15:56:04;19.90;99.90
15426;DHT22;7812;50.072;7.036;2023-08-24T15:58:30;20.00;99.90
15426;DHT22;7812;50.072;7.036;2023-08-24T16:00:56;20.20;99.90
15426;DHT22;7812;50.072;7.036;2023-08-24T16:03:21;20.30;99.90